Time;durP1;ratioP1;P1;durP2;ratioP2;P2;SDS_P1;SDS_P2;PMS_P1;PMS_P2;Temp;Humidity;BMP_temperature;BMP_pressure;BME280_temperature;BME280_humidity;BME280_pressure;Samples;Min_cycle;Max_cycle;Signal;HPM_P1;HPM_P2
2021/07/30 00:00:40;;;;;;;0.70;0.70;;;;;;;16.17;100.00;-21120.84;5052846;28;20456;-73
2021/07/30 00:03:10;;;;;;;0.70;0.70;;;;;;;16.11;100.00;-21119.22;5052473;28;20756;-73
2021/07/30 00:05:38;;;;;;;0.70;0.60;;;;;;;16.07;100.00;-21118.25;5037133;28;20432;-74
2021/07/30 00:08:05;;;;;;;0.70;0.60;;;;;;;16.11;100.00;-21119.22;5039500;28;20529;-74
2021/07/30 00:10:32;;;;;;;0.70;0.60;;;;;;;16.18;100.00;-21121.13;5027442;28;20977;-73
2021/07/30 00:12:59;;;;;;;0.70;0.70;;;;;;;16.27;100.00;-21123.47;5054187;28;20464;-73
2021/07/30 00:15:25;;;;;;;0.80;0.70;;;;;;;16.33;100.00;-21125.13;5054162;28;20418;-73
2021/07/30 00:17:52;;;;;;;0.73;0.70;;;;;;;16.40;100.00;-21127.03;5053694;28;20870;-73
2021/07/30 00:20:21;;;;;;;0.70;0.70;;;;;;;16.46;100.00;-21128.53;5052225;28;20439;-73
2021/07/30 00:22:48;;;;;;;0.70;0.70;;;;;;;16.44;100.00;-21128.13;5052095;28;20461;-74
2021/07/30 00:25:15;;;;;;;0.70;0.63;;;;;;;16.46;100.00;-21128.53;5053058;28;20432;-74
2021/07/30 00:27:44;;;;;;;0.70;0.60;;;;;;;16.50;100.00;-21129.78;5052323;28;20442;-74
2021/07/30 00:30:13;;;;;;;1.00;1.00;;;;;;;16.49;100.00;-21129.38;5052343;28;20448;-74
2021/07/30 00:32:39;;;;;;;0.70;0.67;;;;;;;16.48;100.00;-21129.22;5051974;28;20531;-73
2021/07/30 00:35:08;;;;;;;0.80;0.70;;;;;;;16.50;100.00;-21129.66;5033170;28;21079;-73
2021/07/30 00:37:37;;;;;;;0.80;0.70;;;;;;;16.56;100.00;-21131.28;5032205;28;20434;-74
2021/07/30 00:40:05;;;;;;;0.70;0.70;;;;;;;16.62;100.00;-21132.94;5032218;28;20437;-73
2021/07/30 00:42:33;;;;;;;0.70;0.70;;;;;;;16.75;100.00;-21136.50;5031658;28;20804;-73
2021/07/30 00:45:02;;;;;;;0.70;0.60;;;;;;;16.86;100.00;-21139.41;5016257;28;20611;-73
2021/07/30 00:47:30;;;;;;;0.70;0.70;;;;;;;16.86;100.00;-21139.53;5031842;28;20457;-73
2021/07/30 00:49:59;;;;;;;0.80;0.80;;;;;;;16.93;100.00;-21141.31;5015551;28;20807;-74
2021/07/30 00:52:27;;;;;;;0.70;0.70;;;;;;;16.90;100.00;-21140.50;5031827;28;20955;-73
2021/07/30 00:55:15;;;;;;;0.80;0.70;;;;;;;16.97;100.00;-21142.41;5031762;28;20553;-73
2021/07/30 00:57:43;;;;;;;0.80;0.80;;;;;;;16.98;100.00;-21142.56;5035414;28;20465;-74
2021/07/30 01:00:12;;;;;;;0.70;0.60;;;;;;;17.03;100.00;-21144.06;5051167;28;20456;-74
2021/07/30 01:02:39;;;;;;;0.70;0.70;;;;;;;16.92;100.00;-21141.03;5042903;28;20961;-74
2021/07/30 01:05:09;;;;;;;0.70;0.70;;;;;;;16.83;100.00;-21138.72;5033322;28;20439;-73
2021/07/30 01:07:36;;;;;;;0.70;0.60;;;;;;;16.90;100.00;-21140.63;5035240;28;20458;-73
2021/07/30 01:10:04;;;;;;;0.70;0.70;;;;;;;16.82;100.00;-21138.44;5046845;28;20470;-74
2021/07/30 01:12:33;;;;;;;0.70;0.67;;;;;;;16.80;100.00;-21137.88;5031696;28;20826;-74
2021/07/30 01:15:04;;;;;;;0.80;0.70;;;;;;;16.78;100.00;-21137.34;5033258;28;20416;-73
2021/07/30 01:17:31;;;;;;;0.80;0.70;;;;;;;16.85;100.00;-21139.25;5031840;28;20957;-73
2021/07/30 01:19:58;;;;;;;0.70;0.70;;;;;;;16.82;100.00;-21138.44;5031150;28;20427;-74
2021/07/30 01:22:31;;;;;;;0.70;0.70;;;;;;;16.80;100.00;-21137.75;5032675;28;20425;-74
2021/07/30 01:25:01;;;;;;;0.80;0.70;;;;;;;16.78;100.00;-21137.34;5032061;28;20439;-73
2021/07/30 01:27:28;;;;;;;0.70;0.70;;;;;;;16.62;100.00;-21132.94;5032354;28;20834;-73
2021/07/30 01:29:55;;;;;;;0.87;0.87;;;;;;;16.47;100.00;-21128.81;5031162;28;20466;-73
2021/07/30 01:32:22;;;;;;;0.80;0.70;;;;;;;16.43;100.00;-21128.00;5015236;28;20462;-73
2021/07/30 01:34:50;;;;;;;0.70;0.60;;;;;;;16.41;100.00;-21127.44;5015349;28;20466;-74
2021/07/30 01:37:17;;;;;;;0.70;0.70;;;;;;;16.54;100.00;-21130.88;5030573;28;20441;-73
2021/07/30 01:39:43;;;;;;;0.80;0.70;;;;;;;16.56;100.00;-21131.28;5031825;28;20464;-73
2021/07/30 01:42:12;;;;;;;0.80;0.60;;;;;;;16.49;100.00;-21129.38;5034654;28;20457;-73
2021/07/30 01:44:39;;;;;;;0.73;0.70;;;;;;;16.46;100.00;-21128.53;5047619;28;21005;-73
2021/07/30 01:47:08;;;;;;;0.80;0.70;;;;;;;16.48;100.00;-21129.09;5048132;28;20528;-73
2021/07/30 01:49:35;;;;;;;0.70;0.60;;;;;;;16.46;100.00;-21128.53;5049223;28;20468;-73
2021/07/30 01:52:04;;;;;;;0.80;0.80;;;;;;;16.51;100.00;-21129.91;5047475;28;20474;-73
2021/07/30 01:54:31;;;;;;;0.80;0.80;;;;;;;16.45;100.00;-21128.28;5030526;28;20471;-73
2021/07/30 01:56:58;;;;;;;0.70;0.60;;;;;;;16.40;100.00;-21127.03;5042436;28;20442;-73
2021/07/30 01:59:26;;;;;;;0.70;0.60;;;;;;;16.40;100.00;-21127.03;5052238;28;21016;-73
2021/07/30 02:01:53;;;;;;;0.70;0.60;;;;;;;16.39;100.00;-21126.75;5051886;28;20438;-73
2021/07/30 02:04:20;;;;;;;0.70;0.60;;;;;;;16.37;100.00;-21126.34;5049893;28;20446;-73
2021/07/30 02:06:48;;;;;;;0.70;0.70;;;;;;;16.37;100.00;-21126.22;5020133;28;20776;-73
2021/07/30 02:09:15;;;;;;;0.80;0.70;;;;;;;16.40;100.00;-21127.16;5048267;28;20479;-73
2021/07/30 02:11:43;;;;;;;0.70;0.60;;;;;;;16.38;100.00;-21126.63;5053580;28;20442;-73
2021/07/30 02:14:16;;;;;;;0.80;0.70;;;;;;;16.38;100.00;-21126.63;5037905;28;20420;-73
2021/07/30 02:16:47;;;;;;;0.70;0.60;;;;;;;16.36;100.00;-21126.06;5056346;28;20780;-73
2021/07/30 02:19:18;;;;;;;0.70;0.60;;;;;;;16.30;100.00;-21124.44;5054981;28;20895;-74
2021/07/30 02:21:48;;;;;;;0.70;0.70;;;;;;;16.30;100.00;-21124.44;5054935;28;20826;-74
2021/07/30 02:24:16;;;;;;;0.70;0.70;;;;;;;16.27;100.00;-21123.47;5053651;28;20456;-74
2021/07/30 02:26:43;;;;;;;0.70;0.70;;;;;;;16.17;100.00;-21120.84;5041853;28;20809;-74
2021/07/30 02:29:10;;;;;;;0.70;0.60;;;;;;;15.94;100.00;-21114.66;5034878;28;20524;-73
2021/07/30 02:31:37;;;;;;;0.80;0.70;;;;;;;15.72;100.00;-21108.75;5035619;28;20516;-73
2021/07/30 02:34:07;;;;;;;0.70;0.60;;;;;;;15.49;100.00;-21102.44;5035853;28;20937;-73
2021/07/30 02:36:35;;;;;;;0.70;0.60;;;;;;;15.30;100.00;-21097.50;5034654;28;20873;-73
2021/07/30 02:39:02;;;;;;;0.70;0.70;;;;;;;15.19;100.00;-21094.47;5018111;28;20474;-73
2021/07/30 02:41:29;;;;;;;0.80;0.77;;;;;;;15.07;100.00;-21091.16;5049033;28;20447;-73
2021/07/30 02:43:57;;;;;;;0.80;0.70;;;;;;;14.98;100.00;-21088.97;5053700;28;20456;-73
2021/07/30 02:46:24;;;;;;;0.80;0.70;;;;;;;14.94;100.00;-20843.88;5045883;28;20432;-73
2021/07/30 02:48:52;;;;;;;0.70;0.60;;;;;;;14.95;100.00;-19582.84;5035679;28;20532;-74
2021/07/30 02:51:21;;;;;;;0.70;0.60;;;;;;;14.95;100.00;-17634.47;5035343;28;20532;-73
2021/07/30 02:53:47;;;;;;;0.80;0.70;;;;;;;14.95;100.00;-16033.38;5035546;28;20484;-74
2021/07/30 02:56:14;;;;;;;0.80;0.70;;;;;;;14.82;100.00;-13315.13;5035313;28;20438;-73
2021/07/30 02:58:41;;;;;;;0.80;0.70;;;;;;;14.69;100.00;-9649.75;5034255;28;20503;-73
2021/07/30 03:01:09;;;;;;;0.70;0.60;;;;;;;14.58;100.00;-4712.94;5033249;28;20503;-73
2021/07/30 03:03:39;;;;;;;0.70;0.70;;;;;;;14.53;100.00;1998.53;5045576;28;20433;-73
2021/07/30 03:06:07;;;;;;;0.70;0.70;;;;;;;14.43;100.00;9347.28;5050821;28;20451;-73
2021/07/30 03:08:35;;;;;;;0.70;0.50;;;;;;;14.50;100.00;17218.06;5052143;28;20417;-73
2021/07/30 03:11:03;;;;;;;0.80;0.70;;;;;;;14.41;100.00;25191.38;5053703;28;20204;-73
2021/07/30 03:13:31;;;;;;;0.70;0.60;;;;;;;14.38;100.00;32997.72;5053988;28;20444;-73
2021/07/30 03:15:57;;;;;;;0.77;0.70;;;;;;;14.31;100.00;40000.41;5055357;28;20473;-73
2021/07/30 03:18:26;;;;;;;0.70;0.60;;;;;;;14.22;100.00;45700.41;5053724;28;20466;-73
2021/07/30 03:20:53;;;;;;;0.80;0.80;;;;;;;14.20;100.00;50308.31;5038948;28;20503;-73
2021/07/30 03:23:20;;;;;;;0.77;0.70;;;;;;;14.15;100.00;54589.03;5033830;28;20574;-73
2021/07/30 03:25:49;;;;;;;0.80;0.70;;;;;;;14.29;100.00;58562.91;5034938;28;20448;-73
2021/07/30 03:28:16;;;;;;;0.70;0.60;;;;;;;14.22;100.00;60207.88;5033004;28;20453;-73
2021/07/30 03:30:43;;;;;;;0.70;0.60;;;;;;;14.14;100.00;61521.69;5041361;28;20636;-73
2021/07/30 03:33:10;;;;;;;0.80;0.70;;;;;;;14.11;100.00;63170.72;5054801;28;20535;-73
2021/07/30 03:35:38;;;;;;;0.73;0.67;;;;;;;14.07;100.00;63828.16;5053106;28;20444;-73
2021/07/30 03:38:05;;;;;;;0.70;0.70;;;;;;;14.10;100.00;64823.22;5053745;28;20526;-73
2021/07/30 03:40:33;;;;;;;0.70;0.60;;;;;;;14.11;100.00;65486.06;5049514;28;20442;-73
2021/07/30 03:43:01;;;;;;;0.73;0.70;;;;;;;14.22;100.00;66491.69;5054743;28;20408;-73
2021/07/30 03:45:28;;;;;;;0.77;0.70;;;;;;;14.27;100.00;66497.50;5048788;28;20433;-73
2021/07/30 03:47:55;;;;;;;0.80;0.70;;;;;;;14.29;100.00;66830.94;5040672;28;20477;-73
2021/07/30 03:50:22;;;;;;;0.80;0.80;;;;;;;14.24;100.00;67487.28;5034965;28;20523;-73
2021/07/30 03:52:52;;;;;;;0.70;0.60;;;;;;;14.20;100.00;68476.63;5051424;28;20494;-73
2021/07/30 03:55:19;;;;;;;0.70;0.70;;;;;;;14.15;100.00;68470.03;5053752;28;20424;-73
2021/07/30 03:57:46;;;;;;;0.80;0.80;;;;;;;14.17;100.00;67810.69;5052847;28;20485;-72
2021/07/30 04:00:17;;;;;;;0.70;0.70;;;;;;;14.11;100.00;67471.91;5052186;28;20967;-73
2021/07/30 04:02:44;;;;;;;0.70;0.70;;;;;;;14.08;100.00;66806.31;5053238;28;20428;-73
2021/07/30 04:05:12;;;;;;;0.80;0.80;;;;;;;14.08;100.00;66475.34;5033664;28;20514;-73
2021/07/30 04:07:39;;;;;;;0.80;0.80;;;;;;;14.00;100.00;65805.38;5033023;28;20531;-73
2021/07/30 04:10:09;;;;;;;0.80;0.80;;;;;;;14.00;100.00;64812.41;5033758;28;20881;-72
2021/07/30 04:12:37;;;;;;;0.73;0.63;;;;;;;14.02;100.00;64153.78;5032230;28;20488;-73
2021/07/30 04:15:05;;;;;;;0.80;0.70;;;;;;;13.98;100.00;63487.41;5033670;28;20510;-73
2021/07/30 04:17:33;;;;;;;0.80;0.70;;;;;;;13.92;100.00;62159.19;5037397;28;20432;-73
2021/07/30 04:20:00;;;;;;;0.80;0.80;;;;;;;13.92;100.00;60837.66;5053953;28;20854;-73
2021/07/30 04:22:27;;;;;;;0.80;0.70;;;;;;;13.92;100.00;59846.81;5053594;28;20411;-73
2021/07/30 04:24:55;;;;;;;0.70;0.60;;;;;;;13.91;100.00;58855.22;5052003;28;20930;-73
2021/07/30 04:27:22;;;;;;;0.70;0.70;;;;;;;13.96;100.00;57870.09;5053748;28;20922;-73
2021/07/30 04:29:51;;;;;;;0.80;0.70;;;;;;;13.99;100.00;56883.09;5056793;28;21102;-73
2021/07/30 04:32:18;;;;;;;0.70;0.67;;;;;;;14.00;100.00;55564.41;5048201;28;20439;-73
2021/07/30 04:34:47;;;;;;;0.70;0.70;;;;;;;13.99;100.00;53914.56;5031990;28;20450;-73
2021/07/30 04:37:14;;;;;;;0.70;0.70;;;;;;;14.06;100.00;52931.28;5033258;28;20475;-73
2021/07/30 04:39:40;;;;;;;0.70;0.70;;;;;;;14.10;100.00;51616.72;5033892;28;20433;-73
2021/07/30 04:42:08;;;;;;;0.70;0.70;;;;;;;14.17;100.00;50634.63;5051799;28;20565;-73
2021/07/30 04:44:35;;;;;;;0.70;0.60;;;;;;;14.21;100.00;49650.38;5034967;28;20437;-74
2021/07/30 04:47:02;;;;;;;0.77;0.70;;;;;;;14.22;100.00;48333.50;5033746;28;20519;-73
2021/07/30 04:49:29;;;;;;;0.80;0.80;;;;;;;14.28;100.00;47680.16;5033524;28;20863;-73
2021/07/30 04:52:01;;;;;;;0.70;0.70;;;;;;;14.34;100.00;46697.63;5031337;28;20856;-73
2021/07/30 04:54:27;;;;;;;0.80;0.70;;;;;;;14.42;100.00;46045.97;5032730;28;20455;-73
2021/07/30 04:56:54;;;;;;;0.80;0.70;;;;;;;14.54;100.00;45725.88;5032005;28;20971;-73
2021/07/30 04:59:21;;;;;;;0.70;0.70;;;;;;;14.69;100.00;45079.75;5046663;28;20518;-73
2021/07/30 05:01:48;;;;;;;0.70;0.70;;;;;;;14.78;100.00;45086.66;5052484;28;20454;-73
2021/07/30 05:04:18;;;;;;;0.80;0.70;;;;;;;14.89;100.00;44766.31;5049721;28;20443;-73
2021/07/30 05:06:45;;;;;;;0.80;0.80;;;;;;;15.01;100.00;44775.97;5052979;28;20789;-73
2021/07/30 05:09:13;;;;;;;0.70;0.70;;;;;;;15.09;100.00;44782.00;5051225;28;20463;-73
2021/07/30 05:11:40;;;;;;;0.70;0.60;;;;;;;15.13;100.00;44785.66;5052544;28;21024;-73
2021/07/30 05:14:07;;;;;;;0.70;0.60;;;;;;;15.26;100.00;45124.81;5052618;28;20435;-73
2021/07/30 05:16:34;;;;;;;0.80;0.77;;;;;;;15.35;100.00;45461.66;5053046;28;20439;-73
2021/07/30 05:19:01;;;;;;;0.70;0.60;;;;;;;15.33;100.00;45460.03;5051493;28;20451;-73
2021/07/30 05:21:28;;;;;;;0.70;0.70;;;;;;;15.35;100.00;45462.06;5017959;28;20471;-73
2021/07/30 05:23:55;;;;;;;0.70;0.60;;;;;;;15.41;100.00;45466.56;5031772;28;20957;-73
2021/07/30 05:26:23;;;;;;;0.80;0.70;;;;;;;15.43;100.00;45138.59;5032016;28;20832;-73
2021/07/30 05:28:50;;;;;;;0.70;0.67;;;;;;;15.43;100.00;44809.44;5031824;28;20524;-73
2021/07/30 05:31:18;;;;;;;0.70;0.70;;;;;;;15.40;100.00;44807.00;5032138;28;21041;-73
2021/07/30 05:33:47;;;;;;;0.70;0.70;;;;;;;15.40;100.00;44477.47;5032292;28;20427;-73
2021/07/30 05:36:14;;;;;;;0.80;0.70;;;;;;;15.45;100.00;44481.47;5033186;28;20541;-73
2021/07/30 05:38:43;;;;;;;0.70;0.70;;;;;;;15.59;100.00;44491.91;5033227;28;20463;-73
2021/07/30 05:41:11;;;;;;;0.70;0.60;;;;;;;15.72;100.00;43183.84;5040593;28;20435;-72
2021/07/30 05:43:40;;;;;;;0.70;0.60;;;;;;;15.88;100.00;41878.03;5036222;28;20487;-73
2021/07/30 05:46:08;;;;;;;0.70;0.70;;;;;;;16.14;100.00;38870.03;5044865;28;20454;-73
2021/07/30 05:48:35;;;;;;;0.80;0.80;;;;;;;16.36;100.00;33278.34;5035601;28;20486;-73
2021/07/30 05:51:03;;;;;;;0.80;0.70;;;;;;;16.39;100.00;25846.59;5030856;28;20474;-73
2021/07/30 05:53:30;;;;;;;0.70;0.60;;;;;;;16.64;100.00;15601.03;5036312;28;20465;-73
2021/07/30 05:55:57;;;;;;;0.80;0.77;;;;;;;16.65;100.00;1227.75;5042272;28;20863;-73
2021/07/30 05:58:24;;;;;;;0.70;0.60;;;;;;;16.75;100.00;-11874.91;5050218;28;20851;-73
2021/07/30 06:00:52;;;;;;;0.73;0.70;;;;;;;16.82;100.00;-19734.94;5052477;28;20924;-73
2021/07/30 06:03:20;;;;;;;0.70;0.67;;;;;;;16.83;100.00;-21138.72;5052492;28;20425;-73
2021/07/30 06:05:47;;;;;;;0.80;0.70;;;;;;;16.83;100.00;-21138.56;5050576;28;20428;-73
2021/07/30 06:08:14;;;;;;;0.70;0.70;;;;;;;16.89;100.00;-21140.34;5051235;28;20464;-73
2021/07/30 06:10:41;;;;;;;0.70;0.60;;;;;;;16.96;100.00;-21142.13;5052298;28;20890;-73
2021/07/30 06:13:08;;;;;;;0.70;0.67;;;;;;;17.09;100.00;-21145.56;5052297;28;20421;-74
2021/07/30 06:15:36;;;;;;;0.73;0.70;;;;;;;17.34;100.00;-21152.44;5051643;28;20426;-74
2021/07/30 06:18:04;;;;;;;0.70;0.67;;;;;;;17.47;100.00;-21155.72;5050988;28;20439;-74
2021/07/30 06:20:31;;;;;;;0.80;0.70;;;;;;;17.62;100.00;-21159.81;5034740;28;20536;-74
2021/07/30 06:22:59;;;;;;;0.70;0.60;;;;;;;17.66;100.00;-21160.94;5031224;28;20562;-74
2021/07/30 06:25:26;;;;;;;0.80;0.70;;;;;;;17.94;100.00;-21168.34;5031108;28;20443;-74
2021/07/30 06:27:53;;;;;;;0.70;0.70;;;;;;;18.04;100.00;-21171.06;5031401;28;20411;-74
2021/07/30 06:30:20;;;;;;;0.80;0.70;;;;;;;18.18;100.00;-21174.78;5032481;28;20872;-75
2021/07/30 06:32:47;;;;;;;0.80;0.70;;;;;;;18.39;100.00;-21180.38;5030967;28;20429;-74
2021/07/30 06:35:15;;;;;;;0.80;0.80;;;;;;;18.49;100.00;-21183.13;5033684;28;20675;-74
2021/07/30 06:37:43;;;;;;;1.30;1.20;;;;;;;18.50;100.00;-21183.41;5032479;28;20464;-74
2021/07/30 06:40:14;;;;;;;0.70;0.70;;;;;;;18.67;100.00;-21187.91;5033023;28;20408;-74
2021/07/30 06:42:41;;;;;;;0.70;0.60;;;;;;;18.60;100.00;-21186.13;5051152;28;20946;-74
2021/07/30 06:45:08;;;;;;;0.70;0.60;;;;;;;18.69;100.00;-21188.59;5051888;28;20433;-74
2021/07/30 06:47:36;;;;;;;0.80;0.70;;;;;;;18.89;100.00;-21193.81;5052859;28;20451;-74
2021/07/30 06:50:04;;;;;;;0.70;0.70;;;;;;;19.10;100.00;-21199.56;5055771;28;20462;-74
2021/07/30 06:52:33;;;;;;;0.80;0.80;;;;;;;19.11;100.00;-21199.81;5054166;28;20460;-74
2021/07/30 06:55:01;;;;;;;0.80;0.70;;;;;;;19.24;100.00;-21203.25;5053419;28;20462;-75
2021/07/30 06:57:28;;;;;;;0.80;0.70;;;;;;;19.33;100.00;-21205.72;5055154;28;20495;-74
2021/07/30 06:59:57;;;;;;;0.80;0.70;;;;;;;19.33;100.00;-21205.72;5054733;28;20440;-75
2021/07/30 07:02:24;;;;;;;0.70;0.60;;;;;;;19.37;100.00;-21206.66;5054641;28;20864;-74
2021/07/30 07:04:52;;;;;;;0.70;0.60;;;;;;;19.15;100.00;-21200.78;5052828;28;20466;-74
2021/07/30 07:07:19;;;;;;;0.80;0.70;;;;;;;19.33;100.00;-21205.56;5034179;28;20403;-75
2021/07/30 07:09:47;;;;;;;0.80;0.70;;;;;;;19.33;100.00;-21205.56;5033768;28;20581;-75
2021/07/30 07:12:14;;;;;;;0.80;0.70;;;;;;;19.55;100.00;-21211.59;5051471;28;20490;-74
2021/07/30 07:14:41;;;;;;;0.70;0.70;;;;;;;19.72;100.00;-21216.25;5054148;28;20383;-75
2021/07/30 07:17:08;;;;;;;0.80;0.70;;;;;;;19.84;100.00;-21219.25;5054035;28;20827;-74
2021/07/30 07:19:36;;;;;;;0.80;0.70;;;;;;;19.79;100.00;-21218.16;5054397;28;20432;-75
2021/07/30 07:22:03;;;;;;;0.80;0.70;;;;;;;19.73;100.00;-21216.50;5053735;28;20451;-74
2021/07/30 07:24:30;;;;;;;0.70;0.60;;;;;;;19.92;100.00;-21221.56;5054929;28;20440;-74
2021/07/30 07:26:58;;;;;;;0.80;0.70;;;;;;;20.05;100.00;-21224.97;5053236;28;20443;-74
2021/07/30 07:29:27;;;;;;;0.80;0.70;;;;;;;20.24;100.00;-21230.16;5053643;28;20431;-74
2021/07/30 07:31:54;;;;;;;0.70;0.60;;;;;;;20.55;100.00;-21238.38;5054093;28;20426;-74
2021/07/30 07:34:24;;;;;;;0.80;0.70;;;;;;;20.64;100.00;-21240.69;5053009;28;20447;-74
2021/07/30 07:36:51;;;;;;;0.80;0.70;;;;;;;20.81;100.00;-21245.19;5045814;28;20436;-75
2021/07/30 07:39:18;;;;;;;0.80;0.70;;;;;;;21.02;100.00;-21250.91;5027178;28;20580;-74
2021/07/30 07:41:45;;;;;;;0.80;0.80;;;;;;;21.16;100.00;-21254.59;5051060;28;20989;-74
2021/07/30 07:44:15;;;;;;;0.77;0.70;;;;;;;21.26;100.00;-21257.19;5054464;28;20447;-75
2021/07/30 07:46:43;;;;;;;0.77;0.67;;;;;;;21.42;100.00;-21261.56;5049898;28;20440;-75
2021/07/30 07:49:10;;;;;;;0.70;0.60;;;;;;;21.54;100.00;-21264.84;5051980;28;20784;-75
2021/07/30 07:51:37;;;;;;;0.80;0.70;;;;;;;21.74;100.00;-21270.16;5029100;28;20477;-76
2021/07/30 07:54:06;;;;;;;0.80;0.70;;;;;;;21.99;100.00;-21276.84;5040700;28;20467;-75
2021/07/30 07:56:33;;;;;;;0.80;0.70;;;;;;;22.09;100.00;-21279.56;5047681;28;20399;-75
2021/07/30 07:59:01;;;;;;;0.80;0.60;;;;;;;22.03;100.00;-21277.91;5047181;28;20394;-76
2021/07/30 08:01:31;;;;;;;0.70;0.60;;;;;;;21.98;100.00;-21276.56;5043505;28;20531;-74
2021/07/30 08:03:59;;;;;;;0.73;0.63;;;;;;;22.17;100.00;-21281.75;5044697;28;20852;-75
2021/07/30 08:06:27;;;;;;;0.73;0.67;;;;;;;22.75;100.00;-21297.00;5046955;28;20459;-76
2021/07/30 08:08:56;;;;;;;0.80;0.70;;;;;;;22.93;100.00;-21301.88;5038333;28;20435;-74
2021/07/30 08:11:23;;;;;;;0.70;0.60;;;;;;;22.86;100.00;-21299.97;5032347;28;20881;-75
2021/07/30 08:13:51;;;;;;;0.80;0.70;;;;;;;22.93;100.00;-21301.75;5033069;28;20441;-75
2021/07/30 08:16:23;;;;;;;0.70;0.60;;;;;;;23.13;100.00;-21307.34;5032674;28;20406;-75
2021/07/30 08:18:51;;;;;;;0.80;0.70;;;;;;;23.12;100.00;-21307.06;5033519;28;20472;-76
2021/07/30 08:21:18;;;;;;;0.70;0.60;;;;;;;23.47;100.00;-21316.31;5034401;28;20404;-75
2021/07/30 08:23:45;;;;;;;0.70;0.60;;;;;;;23.49;100.00;-21316.84;5033373;28;20788;-76
2021/07/30 08:26:13;;;;;;;0.70;0.60;;;;;;;23.69;100.00;-21322.03;5034874;28;20486;-76
2021/07/30 08:28:40;;;;;;;0.70;0.60;;;;;;;23.84;100.00;-21326.22;5032281;28;20494;-72
2021/07/30 08:31:07;;;;;;;0.70;0.60;;;;;;;24.08;100.00;-21332.63;5027428;28;20824;-73
2021/07/30 08:33:35;;;;;;;0.80;0.60;;;;;;;24.13;100.00;-21333.69;5053341;28;20438;-73
2021/07/30 08:36:05;;;;;;;0.70;0.50;;;;;;;24.25;100.00;-21337.09;5051984;28;20475;-73
2021/07/30 08:38:33;;;;;;;0.70;0.60;;;;;;;24.33;100.00;-21339.25;5035953;28;20471;-76
2021/07/30 08:41:00;;;;;;;0.70;0.60;;;;;;;24.74;100.00;-21350.13;5041260;28;20439;-76
2021/07/30 08:43:27;;;;;;;0.70;0.60;;;;;;;24.63;100.00;-21347.00;5033132;28;20429;-75
2021/07/30 08:45:54;;;;;;;1.03;0.93;;;;;;;25.16;100.00;-21361.25;5032541;28;20432;-75
2021/07/30 08:48:21;;;;;;;0.70;0.60;;;;;;;25.14;100.00;-21360.56;5049948;28;21010;-74
2021/07/30 08:50:49;;;;;;;0.70;0.50;;;;;;;25.73;100.00;-21376.31;5053332;28;20495;-74
2021/07/30 08:53:22;;;;;;;0.70;0.50;;;;;;;25.88;100.00;-21380.22;5052387;28;20448;-73
2021/07/30 08:55:50;;;;;;;0.70;0.50;;;;;;;26.12;100.00;-21386.59;5052171;28;20435;-74
2021/07/30 08:58:17;;;;;;;0.70;0.50;;;;;;;25.95;100.00;-21382.25;5046662;28;20434;-75
2021/07/30 09:00:44;;;;;;;0.70;0.50;;;;;;;26.33;100.00;-21392.28;5052777;28;20451;-73
2021/07/30 09:03:11;;;;;;;0.70;0.50;;;;;;;27.08;100.00;-21412.03;5051514;28;20782;-72
2021/07/30 09:05:39;;;;;;;0.70;0.50;;;;;;;27.09;100.00;-21412.31;5052974;28;20760;-72
2021/07/30 09:08:08;;;;;;;0.70;0.50;;;;;;;26.45;100.00;-21395.41;5050872;28;20521;-73
2021/07/30 09:10:39;;;;;;;0.70;0.50;;;;;;;26.07;100.00;-21385.38;5050265;28;20536;-73
2021/07/30 09:13:12;;;;;;;0.70;0.50;;;;;;;26.78;100.00;-21404.06;5043582;28;20452;-72
2021/07/30 09:15:40;;;;;;;0.70;0.50;;;;;;;27.05;100.00;-21411.22;5049578;28;20939;-72
2021/07/30 09:18:22;;;;;;;0.70;0.50;;;;;;;26.78;100.00;-21404.19;5034276;28;20475;-73
2021/07/30 09:20:49;;;;;;;0.70;0.57;;;;;;;26.63;100.00;-21400.13;5043435;28;20931;-73
2021/07/30 09:23:18;;;;;;;0.70;0.50;;;;;;;25.81;100.00;-21378.47;5044325;28;20865;-70
2021/07/30 09:25:46;;;;;;;0.70;0.50;;;;;;;26.13;100.00;-21386.88;5041318;28;20926;-75
2021/07/30 09:28:13;;;;;;;0.70;0.50;;;;;;;26.24;100.00;-21389.84;5039946;28;20417;-73
2021/07/30 09:30:40;;;;;;;0.70;0.60;;;;;;;27.10;100.00;-21412.72;5043743;28;20695;-73
2021/07/30 09:33:07;;;;;;;0.70;0.50;;;;;;;26.76;100.00;-21403.53;5043600;28;20450;-73
2021/07/30 09:35:56;;;;;;;0.70;0.50;;;;;;;26.22;100.00;-21389.31;5040872;28;20429;-73
2021/07/30 09:38:23;;;;;;;0.70;0.50;;;;;;;26.71;100.00;-21402.31;5035770;28;20476;-74
2021/07/30 09:41:10;;;;;;;0.70;0.50;;;;;;;27.17;100.00;-21414.47;5028368;28;20432;-75
2021/07/30 09:43:41;;;;;;;0.70;0.50;;;;;;;27.82;100.00;-21431.63;5042369;28;20976;-73
2021/07/30 09:46:13;;;;;;;0.70;0.50;;;;;;;27.00;100.00;-21409.88;5044721;28;20424;-71
2021/07/30 09:48:51;;;;;;;0.70;0.50;;;;;;;26.10;100.00;-21386.06;5027652;28;20459;-73
2021/07/30 09:51:19;;;;;;;0.70;0.50;;;;;;;25.95;100.00;-21382.25;5041367;28;20469;-75
2021/07/30 09:53:47;;;;;;;0.70;0.50;;;;;;;25.91;100.00;-21381.19;5043160;28;20505;-74
2021/07/30 09:56:16;;;;;;;0.70;0.50;;;;;;;25.71;100.00;-21375.75;5042702;28;20470;-75
2021/07/30 09:58:46;;;;;;;0.70;0.50;;;;;;;25.88;100.00;-21380.22;5040869;28;20429;-73
2021/07/30 10:01:16;;;;;;;0.70;0.50;;;;;;;25.52;100.00;-21370.75;5052024;28;20412;-75
2021/07/30 10:03:45;;;;;;;0.70;0.50;;;;;;;26.06;100.00;-21384.97;5052809;28;20409;-75
2021/07/30 10:06:16;;;;;;;0.70;0.60;;;;;;;25.72;100.00;-21376.03;5050507;28;20428;-75
2021/07/30 10:08:43;;;;;;;0.70;0.60;;;;;;;25.01;100.00;-21357.31;5052516;28;20443;-74
2021/07/30 10:11:12;;;;;;;0.70;0.50;;;;;;;25.73;100.00;-21376.31;5048212;28;20494;-76
2021/07/30 10:13:49;;;;;;;0.70;0.50;;;;;;;27.58;100.00;-21425.28;5034420;28;20429;-74
2021/07/30 10:16:17;;;;;;;0.70;0.50;;;;;;;29.77;100.00;-21483.28;5032613;28;20449;-73
2021/07/30 10:18:45;;;;;;;0.70;0.50;;;;;;;30.72;100.00;-21508.31;5032451;28;20491;-73
2021/07/30 10:21:16;;;;;;;0.70;0.50;;;;;;;29.04;100.00;-21463.88;5032850;28;20917;-72
2021/07/30 10:23:46;;;;;;;0.70;0.50;;;;;;;28.16;100.00;-21440.69;5036362;28;20449;-72
2021/07/30 10:26:16;;;;;;;0.70;0.50;;;;;;;26.84;100.00;-21405.81;5044186;28;20785;-72
2021/07/30 10:28:45;;;;;;;0.70;0.50;;;;;;;26.56;100.00;-21398.38;5030792;28;21866;-72
2021/07/30 10:31:13;;;;;;;0.70;0.50;;;;;;;26.68;100.00;-21401.63;5045106;28;20508;-73
2021/07/30 10:33:48;;;;;;;0.70;0.50;;;;;;;27.18;100.00;-21414.75;5045633;28;20543;-76
2021/07/30 10:36:37;;;;;;;0.70;0.50;;;;;;;26.83;100.00;-21405.53;5044662;28;20409;-72
2021/07/30 10:39:10;;;;;;;0.70;0.50;;;;;;;27.16;100.00;-21414.19;5045631;28;20788;-71
2021/07/30 10:41:39;;;;;;;0.70;0.50;;;;;;;28.75;100.00;-21456.34;5045220;28;20830;-72
2021/07/30 10:44:09;;;;;;;0.70;0.50;;;;;;;27.90;100.00;-21433.78;5047186;28;20444;-75
2021/07/30 10:46:36;;;;;;;0.70;0.50;;;;;;;27.49;100.00;-21422.84;5038516;28;20828;-74
2021/07/30 10:49:41;;;;;;;0.70;0.50;;;;;;;28.37;100.00;-21446.34;5046161;28;20412;-75
2021/07/30 10:52:27;;;;;;;0.70;0.50;;;;;;;28.80;100.00;-21457.69;5026657;28;20881;-74
2021/07/30 10:54:55;;;;;;;0.70;0.50;;;;;;;29.00;100.00;-21462.94;5043575;28;20417;-73
2021/07/30 10:57:55;;;;;;;0.70;0.50;;;;;;;29.90;100.00;-21486.66;5044188;28;20433;-71
2021/07/30 11:00:24;;;;;;;0.70;0.50;;;;;;;29.64;100.00;-21479.78;5043890;28;20451;-72
2021/07/30 11:03:05;;;;;;;0.70;0.50;;;;;;;28.25;100.00;-21443.09;5042470;28;20925;-71
2021/07/30 11:05:54;;;;;;;0.70;0.50;;;;;;;27.25;100.00;-21416.63;5044355;28;20840;-75
2021/07/30 11:08:21;;;;;;;1.00;0.70;;;;;;;27.91;100.00;-21434.19;5036388;28;20463;-74
2021/07/30 11:10:53;;;;;;;0.70;0.50;;;;;;;28.58;100.00;-21451.75;5043492;28;21021;-74
2021/07/30 11:13:20;;;;;;;0.70;0.50;;;;;;;28.50;100.00;-21449.59;5052947;28;20467;-74
2021/07/30 11:15:48;;;;;;;0.70;0.50;;;;;;;28.57;100.00;-21451.63;5040456;28;20507;-74
2021/07/30 11:18:15;;;;;;;0.70;0.50;;;;;;;28.77;100.00;-21456.75;5017324;28;20929;-74
2021/07/30 11:20:43;;;;;;;0.70;0.50;;;;;;;28.26;100.00;-21443.38;5037456;28;20429;-74
2021/07/30 11:23:10;;;;;;;0.70;0.50;;;;;;;27.90;100.00;-21433.94;5043135;28;20515;-74
2021/07/30 11:25:38;;;;;;;0.70;0.50;;;;;;;28.30;100.00;-21444.47;5042069;28;20437;-74